Hagen — V2PB3 — position and weather

sailwx.info

Track history (hours):
 
Tides and Currents Weather Stations Pressure Air Temp Water Temp Dewpoint Dewpoint Depression Visibility Wind Speed Wind Dir Waves Ship Positions

Hagen

Last reported at 2015-May-28 19:05 UTC. Time now 2015-May-29 00:11 UTC.
Position N 40°25' E 029°05'.

Length 89 m; draft 6.1 m.

Type: Cargo ship. MMSI: 304010898.

Date/timePositionNaut miles runAvg speedWind from/ knotsBaromVisibWave heightAir tempDewpointWater temp
2015-May-28 19:05N 40°25' E 029°05'0 0.0
2015-May-27 08:21N 40°25' E 029°05'  
2015-May-25 00:06N 40°26' E 029°06'4 7.8
2015-May-24 23:32N 40°26' E 028°60'11 9.9
2015-May-24 22:24N 40°27' E 028°45'274 7.6
2015-May-23 10:08N 37°27' E 024°19'18 9.5
2015-May-23 08:14N 37°13' E 024°05'304 8.8
2015-May-21 21:33N 36°13' E 017°54'27 8.9
2015-May-21 18:32N 36°11' E 017°20'50 9.1
2015-May-21 13:05N 36°10' E 016°19'45 9.0
2015-May-21 08:05N 36°09' E 015°23'5 8.8
2015-May-21 07:33N 36°10' E 015°18'10 9.9
2015-May-21 06:33N 36°13' E 015°06'10 9.9
2015-May-21 05:32N 36°15' E 014°54'1010.0
2015-May-21 04:33N 36°17' E 014°42'14 9.9
2015-May-21 03:11N 36°19' E 014°25'6 9.6
2015-May-21 02:33N 36°20' E 014°18'10 9.6
2015-May-21 01:33N 36°23' E 014°07'10 9.8
2015-May-21 00:33N 36°25' E 013°55'10 9.8
2015-May-20 23:33N 36°28' E 013°43'10 9.7
2015-May-20 22:33N 36°31' E 013°32'9 9.3
2015-May-20 21:33N 36°34' E 013°21'9 9.1
2015-May-20 20:33N 36°36' E 013°10'9 9.0
2015-May-20 19:33N 36°39' E 012°59'9 9.2
2015-May-20 18:33N 36°44' E 012°49'9 9.4
2015-May-20 17:33N 36°47' E 012°38'19 9.7
2015-May-20 15:33N 36°54' E 012°15'9 9.5
2015-May-20 14:33N 36°57' E 012°04'9 9.5
2015-May-20 13:33N 37°02' E 011°54'19 9.5
2015-May-20 11:33N 37°11' E 011°33'20 9.6
2015-May-20 09:28N 37°21' E 011°11'2010.3
2015-May-20 07:33N 37°27' E 010°48'108 9.8
2015-May-19 20:32N 37°32' E 008°31'9 9.2
2015-May-19 19:33N 37°32' E 008°20'1010.1
2015-May-19 18:32N 37°31' E 008°07'173 9.9
2015-May-19 01:04N 37°07' E 004°32'53 9.6
2015-May-18 19:33N 37°01' E 003°26'  
Track history (hours):
 
Tides and Currents Weather Stations Pressure Air Temp Water Temp Dewpoint Dewpoint Depression Visibility Wind Speed Wind Dir Waves Ship Positions

Hagen

Last reported at 2015-May-28 19:05 UTC. Time now 2015-May-29 00:11 UTC.
Position N 40°25' E 029°05'.

Length 89 m; draft 6.1 m.

Type: Cargo ship. MMSI: 304010898.

Date/timePositionNaut miles runAvg speedWind from/ knotsBaromVisibWave heightAir tempDewpointWater temp
2015-May-28 19:05N 40°25' E 029°05'0 0.0
2015-May-27 08:21N 40°25' E 029°05'  
2015-May-25 00:06N 40°26' E 029°06'4 7.8
2015-May-24 23:32N 40°26' E 028°60'11 9.9
2015-May-24 22:24N 40°27' E 028°45'274 7.6
2015-May-23 10:08N 37°27' E 024°19'18 9.5
2015-May-23 08:14N 37°13' E 024°05'304 8.8
2015-May-21 21:33N 36°13' E 017°54'27 8.9
2015-May-21 18:32N 36°11' E 017°20'50 9.1
2015-May-21 13:05N 36°10' E 016°19'45 9.0
2015-May-21 08:05N 36°09' E 015°23'5 8.8
2015-May-21 07:33N 36°10' E 015°18'10 9.9
2015-May-21 06:33N 36°13' E 015°06'10 9.9
2015-May-21 05:32N 36°15' E 014°54'1010.0
2015-May-21 04:33N 36°17' E 014°42'14 9.9
2015-May-21 03:11N 36°19' E 014°25'6 9.6
2015-May-21 02:33N 36°20' E 014°18'10 9.6
2015-May-21 01:33N 36°23' E 014°07'10 9.8
2015-May-21 00:33N 36°25' E 013°55'10 9.8
2015-May-20 23:33N 36°28' E 013°43'10 9.7
2015-May-20 22:33N 36°31' E 013°32'9 9.3
2015-May-20 21:33N 36°34' E 013°21'9 9.1
2015-May-20 20:33N 36°36' E 013°10'9 9.0
2015-May-20 19:33N 36°39' E 012°59'9 9.2
2015-May-20 18:33N 36°44' E 012°49'9 9.4
2015-May-20 17:33N 36°47' E 012°38'19 9.7
2015-May-20 15:33N 36°54' E 012°15'9 9.5
2015-May-20 14:33N 36°57' E 012°04'9 9.5
2015-May-20 13:33N 37°02' E 011°54'19 9.5
2015-May-20 11:33N 37°11' E 011°33'20 9.6
2015-May-20 09:28N 37°21' E 011°11'2010.3
2015-May-20 07:33N 37°27' E 010°48'108 9.8
2015-May-19 20:32N 37°32' E 008°31'9 9.2
2015-May-19 19:33N 37°32' E 008°20'1010.1
2015-May-19 18:32N 37°31' E 008°07'173 9.9
2015-May-19 01:04N 37°07' E 004°32'53 9.6
2015-May-18 19:33N 37°01' E 003°26'  

Dump ship's entire track history